Time;durP1;ratioP1;P1;durP2;ratioP2;P2;SDS_P1;SDS_P2;PMS_P1;PMS_P2;Temp;Humidity;BMP_temperature;BMP_pressure;BME280_temperature;BME280_humidity;BME280_pressure;Samples;Min_cycle;Max_cycle;Signal;HPM_P1;HPM_P2
2022/04/20 00:28:38;;;;;;;;;;;8.00;99.90;;;;;;5157257;27;19918;-71
2022/04/20 00:31:03;;;;;;;;;;;8.50;99.90;;;;;;5157827;27;20355;-73
2022/04/20 00:33:29;;;;;;;;;;;8.20;99.90;;;;;;5157526;27;20332;-71
2022/04/20 00:35:55;;;;;;;;;;;7.90;99.90;;;;;;5157525;27;19923;-71
2022/04/20 00:38:20;;;;;;;;;;;7.90;99.90;;;;;;5139224;27;19974;-74
2022/04/20 00:40:49;;;;;;;;;;;7.90;99.90;;;;;;5157400;27;19930;-71
2022/04/20 00:43:15;;;;;;;;;;;7.70;99.90;;;;;;5157503;27;20263;-71
2022/04/20 00:45:42;;;;;;;;;;;7.90;99.90;;;;;;5157491;27;19971;-73
2022/04/20 00:48:09;;;;;;;;;;;7.90;99.90;;;;;;5157337;27;20393;-74
2022/04/20 00:50:35;;;;;;;;;;;7.80;99.90;;;;;;5157276;27;19923;-72
2022/04/20 00:53:01;;;;;;;;;;;8.40;99.90;;;;;;5138944;27;19950;-71
2022/04/20 00:55:26;;;;;;;;;;;7.80;99.90;;;;;;5157123;27;20389;-71
2022/04/20 00:57:52;;;;;;;;;;;7.80;99.90;;;;;;5157230;27;19923;-75
2022/04/20 01:00:18;;;;;;;;;;;8.30;99.90;;;;;;5157215;27;19984;-74
2022/04/20 01:02:43;;;;;;;;;;;7.60;99.90;;;;;;5157002;27;19930;-71
2022/04/20 01:05:09;;;;;;;;;;;8.50;99.90;;;;;;5157007;27;19923;-71
2022/04/20 01:07:36;;;;;;;;;;;7.80;99.90;;;;;;5156899;27;20014;-71
2022/04/20 01:10:02;;;;;;;;;;;7.80;99.90;;;;;;5156770;27;19923;-71
2022/04/20 01:12:28;;;;;;;;;;;8.10;99.90;;;;;;5138793;27;19945;-70
2022/04/20 01:14:54;;;;;;;;;;;7.70;99.90;;;;;;5156944;27;19923;-70
2022/04/20 01:17:19;;;;;;;;;;;8.40;99.90;;;;;;5156675;27;19980;-71
2022/04/20 01:19:45;;;;;;;;;;;7.70;99.90;;;;;;5156092;27;19923;-71
2022/04/20 01:22:11;;;;;;;;;;;7.70;99.90;;;;;;5138538;27;19927;-70
2022/04/20 01:24:37;;;;;;;;;;;7.70;99.90;;;;;;5156607;27;19974;-70
2022/04/20 01:27:03;;;;;;;;;;;8.30;99.90;;;;;;5156457;27;19970;-71
2022/04/20 01:29:29;;;;;;;;;;;7.60;99.90;;;;;;5138524;27;20274;-72
2022/04/20 01:31:55;;;;;;;;;;;8.50;99.90;;;;;;5156468;27;19987;-73
2022/04/20 01:34:20;;;;;;;;;;;7.60;99.90;;;;;;5156189;27;19927;-73
2022/04/20 01:36:46;;;;;;;;;;;7.60;99.90;;;;;;5156214;27;20437;-71
2022/04/20 01:39:12;;;;;;;;;;;7.60;99.90;;;;;;5156175;27;19923;-71
2022/04/20 01:41:38;;;;;;;;;;;8.10;99.90;;;;;;5156212;27;19929;-70
2022/04/20 01:44:04;;;;;;;;;;;7.50;99.90;;;;;;5156408;27;19923;-71
2022/04/20 01:46:29;;;;;;;;;;;7.50;99.90;;;;;;5155282;27;19923;-70
2022/04/20 01:48:55;;;;;;;;;;;7.60;99.90;;;;;;5156185;27;20013;-71
2022/04/20 01:54:04;;;;;;;;;;;7.50;99.90;;;;;;5155935;27;19976;-71
2022/04/20 01:56:30;;;;;;;;;;;8.50;99.90;;;;;;5156065;27;19923;-73
2022/04/20 01:58:55;;;;;;;;;;;7.40;99.90;;;;;;5156049;27;19976;-74
2022/04/20 02:04:06;;;;;;;;;;;7.50;99.90;;;;;;5155877;27;20026;-71
2022/04/20 02:06:31;;;;;;;;;;;7.40;99.90;;;;;;5137600;27;19980;-71
2022/04/20 02:08:57;;;;;;;;;;;7.40;99.90;;;;;;5155654;27;19930;-71
2022/04/20 02:11:23;;;;;;;;;;;7.40;99.90;;;;;;5137674;27;19930;-75
2022/04/20 02:13:48;;;;;;;;;;;7.40;99.90;;;;;;5155832;27;20017;-71
2022/04/20 02:16:14;;;;;;;;;;;8.10;99.90;;;;;;5155736;27;19930;-73
2022/04/20 02:18:39;;;;;;;;;;;7.30;99.90;;;;;;5155652;27;19923;-72
2022/04/20 02:21:05;;;;;;;;;;;7.60;99.90;;;;;;5155553;27;20293;-71
2022/04/20 02:23:30;;;;;;;;;;;7.70;99.90;;;;;;5155561;27;19950;-74
2022/04/20 02:25:56;;;;;;;;;;;7.80;99.90;;;;;;5155764;27;20286;-72
2022/04/20 02:28:21;;;;;;;;;;;7.40;99.90;;;;;;5155675;27;19923;-71
2022/04/20 02:30:47;;;;;;;;;;;7.20;99.90;;;;;;5137410;27;20373;-72
2022/04/20 02:33:13;;;;;;;;;;;7.10;99.90;;;;;;5155149;27;19923;-71
2022/04/20 02:35:39;;;;;;;;;;;7.50;99.90;;;;;;5155389;27;19923;-71
2022/04/20 02:38:06;;;;;;;;;;;7.00;99.90;;;;;;5155202;27;19930;-72
2022/04/20 02:40:32;;;;;;;;;;;7.00;99.90;;;;;;5155635;27;20385;-71
2022/04/20 02:42:57;;;;;;;;;;;7.00;99.90;;;;;;5155506;27;19944;-71
2022/04/20 02:45:23;;;;;;;;;;;7.00;99.90;;;;;;5155412;27;19923;-71
2022/04/20 02:47:48;;;;;;;;;;;8.20;99.90;;;;;;5155326;27;20389;-70
2022/04/20 02:50:14;;;;;;;;;;;7.00;99.90;;;;;;5137119;27;19924;-71
2022/04/20 02:52:39;;;;;;;;;;;7.00;99.90;;;;;;5155677;27;20013;-70
2022/04/20 02:55:05;;;;;;;;;;;6.90;99.90;;;;;;5155189;27;19968;-70
2022/04/20 02:57:31;;;;;;;;;;;6.90;99.90;;;;;;5155287;27;20018;-70
2022/04/20 02:59:56;;;;;;;;;;;7.70;99.90;;;;;;5155077;27;20014;-72
2022/04/20 03:02:22;;;;;;;;;;;6.80;99.90;;;;;;5155392;27;19937;-71
2022/04/20 03:04:47;;;;;;;;;;;7.00;99.90;;;;;;5155275;27;20381;-74
2022/04/20 03:07:13;;;;;;;;;;;6.70;99.90;;;;;;5155137;27;20286;-70
2022/04/20 03:09:38;;;;;;;;;;;6.50;99.90;;;;;;5155027;27;20388;-71
2022/04/20 03:12:04;;;;;;;;;;;6.70;99.90;;;;;;5155212;27;20278;-72
2022/04/20 03:14:30;;;;;;;;;;;6.60;99.90;;;;;;5155209;27;19923;-70
2022/04/20 03:16:55;;;;;;;;;;;6.70;99.90;;;;;;5155026;27;20400;-70
2022/04/20 03:19:21;;;;;;;;;;;7.30;99.90;;;;;;5155102;27;20393;-71
2022/04/20 03:21:47;;;;;;;;;;;6.50;99.90;;;;;;5154035;27;19974;-71
2022/04/20 03:24:12;;;;;;;;;;;6.50;99.90;;;;;;5154904;27;19977;-70
2022/04/20 03:26:39;;;;;;;;;;;6.80;99.90;;;;;;5154838;27;19923;-70
2022/04/20 03:29:04;;;;;;;;;;;6.40;99.90;;;;;;5155085;27;20457;-71
2022/04/20 03:31:30;;;;;;;;;;;6.40;99.90;;;;;;5155030;27;19966;-71
2022/04/20 03:33:56;;;;;;;;;;;7.30;99.90;;;;;;5154721;27;19962;-73
2022/04/20 03:36:21;;;;;;;;;;;6.40;99.90;;;;;;5154710;27;19981;-71
2022/04/20 03:38:47;;;;;;;;;;;6.40;99.90;;;;;;5136663;27;19923;-71
2022/04/20 03:41:13;;;;;;;;;;;6.30;99.90;;;;;;5154669;27;19923;-71
2022/04/20 03:43:38;;;;;;;;;;;6.30;99.90;;;;;;5155410;27;20389;-73
2022/04/20 03:46:05;;;;;;;;;;;6.80;99.90;;;;;;5158630;27;19923;-74
2022/04/20 03:48:31;;;;;;;;;;;6.30;99.90;;;;;;5158585;27;19927;-70
2022/04/20 03:50:56;;;;;;;;;;;6.30;99.90;;;;;;5158434;27;19923;-72
2022/04/20 03:53:22;;;;;;;;;;;6.50;99.90;;;;;;5158441;27;19923;-73
2022/04/20 03:55:47;;;;;;;;;;;7.60;99.90;;;;;;5158376;27;19980;-71
2022/04/20 03:58:13;;;;;;;;;;;7.60;99.90;;;;;;5158429;27;19923;-73
2022/04/20 04:00:38;;;;;;;;;;;6.30;99.90;;;;;;5158452;27;19923;-72
2022/04/20 04:03:04;;;;;;;;;;;6.70;99.90;;;;;;5158278;27;19923;-73
2022/04/20 04:05:29;;;;;;;;;;;6.30;99.90;;;;;;5158228;27;19975;-71
2022/04/20 04:07:55;;;;;;;;;;;6.30;99.90;;;;;;5139899;27;19923;-70
2022/04/20 04:10:21;;;;;;;;;;;6.20;99.90;;;;;;5158140;27;19926;-71
2022/04/20 04:12:46;;;;;;;;;;;6.20;99.90;;;;;;5157912;27;19968;-71
2022/04/20 04:15:12;;;;;;;;;;;6.40;99.90;;;;;;5158178;27;19975;-71
2022/04/20 04:17:37;;;;;;;;;;;6.10;99.90;;;;;;5139251;27;19924;-69
2022/04/20 04:20:04;;;;;;;;;;;6.10;99.90;;;;;;5158013;27;19931;-72
2022/04/20 04:22:30;;;;;;;;;;;6.10;99.90;;;;;;5157923;27;19937;-70
2022/04/20 04:24:57;;;;;;;;;;;6.00;99.90;;;;;;5157827;27;20316;-74
2022/04/20 04:27:22;;;;;;;;;;;6.50;99.90;;;;;;5156777;27;19987;-72
2022/04/20 04:29:48;;;;;;;;;;;5.90;99.90;;;;;;5139765;27;20417;-70
2022/04/20 04:32:14;;;;;;;;;;;6.60;99.90;;;;;;5157772;27;20279;-72
2022/04/20 04:34:40;;;;;;;;;;;5.90;99.90;;;;;;5139124;27;19971;-73
2022/04/20 04:37:09;;;;;;;;;;;5.80;99.90;;;;;;5157467;27;19923;-72
2022/04/20 04:39:34;;;;;;;;;;;5.80;99.90;;;;;;5157545;27;19941;-71
2022/04/20 04:42:01;;;;;;;;;;;5.80;99.90;;;;;;5157464;27;19926;-72
2022/04/20 04:44:27;;;;;;;;;;;6.00;99.90;;;;;;5139464;27;19923;-70
2022/04/20 04:49:36;;;;;;;;;;;5.80;99.90;;;;;;5157406;27;19930;-70
2022/04/20 04:52:02;;;;;;;;;;;6.00;99.90;;;;;;5157473;27;19923;-71
2022/04/20 04:54:28;;;;;;;;;;;5.90;99.90;;;;;;5138109;27;19929;-71
2022/04/20 04:56:54;;;;;;;;;;;5.80;99.90;;;;;;5156524;27;20013;-71
2022/04/20 04:59:19;;;;;;;;;;;5.90;99.90;;;;;;5157330;27;19923;-70
2022/04/20 05:01:45;;;;;;;;;;;6.20;99.90;;;;;;5157142;27;19930;-71
2022/04/20 05:04:11;;;;;;;;;;;5.90;99.90;;;;;;5138567;27;20370;-71
2022/04/20 05:06:37;;;;;;;;;;;7.10;99.90;;;;;;5157106;27;19930;-70
2022/04/20 05:09:03;;;;;;;;;;;5.80;99.90;;;;;;5138407;27;19966;-70
2022/04/20 05:11:29;;;;;;;;;;;6.10;99.90;;;;;;5156844;27;20009;-71
2022/04/20 05:13:55;;;;;;;;;;;5.80;99.90;;;;;;5157014;27;20385;-71
2022/04/20 05:16:21;;;;;;;;;;;7.40;99.90;;;;;;5138420;27;19949;-71
2022/04/20 05:18:46;;;;;;;;;;;6.10;99.90;;;;;;5156786;27;20395;-71
2022/04/20 05:21:12;;;;;;;;;;;6.00;99.90;;;;;;5156739;27;19958;-70
2022/04/20 05:23:37;;;;;;;;;;;5.90;99.90;;;;;;5156631;27;19949;-71
2022/04/20 05:26:03;;;;;;;;;;;5.90;99.90;;;;;;5138317;27;19945;-70
2022/04/20 05:28:28;;;;;;;;;;;7.00;99.90;;;;;;5156524;27;19945;-70
2022/04/20 05:30:54;;;;;;;;;;;7.00;99.90;;;;;;5156670;27;19923;-70
2022/04/20 05:33:20;;;;;;;;;;;6.40;99.90;;;;;;5137915;27;19923;-70
2022/04/20 05:35:46;;;;;;;;;;;6.60;99.90;;;;;;5156499;27;20017;-70
2022/04/20 05:43:39;;;;;;;;;;;6.00;99.90;;;;;;5156356;27;19925;-70
2022/04/20 05:46:06;;;;;;;;;;;6.00;99.90;;;;;;5156431;27;19930;-70
2022/04/20 05:48:32;;;;;;;;;;;6.00;99.90;;;;;;5156197;27;19934;-73
2022/04/20 05:50:57;;;;;;;;;;;6.60;99.90;;;;;;5156083;27;19989;-70
2022/04/20 05:53:23;;;;;;;;;;;6.40;99.90;;;;;;5155169;27;19927;-70
2022/04/20 05:55:48;;;;;;;;;;;6.50;99.90;;;;;;5155939;27;19931;-70
2022/04/20 05:58:14;;;;;;;;;;;6.20;99.90;;;;;;5156018;27;19923;-70
2022/04/20 06:00:39;;;;;;;;;;;6.20;99.90;;;;;;5156118;27;20021;-68
2022/04/20 06:03:05;;;;;;;;;;;6.20;99.90;;;;;;5155967;27;19973;-73
2022/04/20 06:05:30;;;;;;;;;;;6.30;99.90;;;;;;5155844;27;19934;-70
2022/04/20 06:07:56;;;;;;;;;;;6.80;99.90;;;;;;5155635;27;20393;-71
2022/04/20 06:10:22;;;;;;;;;;;6.40;99.90;;;;;;5155779;27;20297;-71
2022/04/20 06:12:47;;;;;;;;;;;6.50;99.90;;;;;;5156022;27;20077;-70
2022/04/20 06:15:13;;;;;;;;;;;6.50;99.90;;;;;;5155911;27;19923;-73
2022/04/20 06:17:38;;;;;;;;;;;6.50;99.90;;;;;;5155614;27;19923;-73
2022/04/20 06:20:05;;;;;;;;;;;8.30;99.90;;;;;;5137322;27;20032;-70
2022/04/20 06:22:30;;;;;;;;;;;6.70;99.90;;;;;;5137452;27;19927;-71
2022/04/20 06:24:56;;;;;;;;;;;8.00;99.90;;;;;;5154576;27;19930;-73
2022/04/20 06:27:27;;;;;;;;;;;6.90;99.90;;;;;;5136309;27;19923;-74
2022/04/20 06:29:53;;;;;;;;;;;7.00;99.90;;;;;;5136848;27;20390;-69
2022/04/20 06:32:19;;;;;;;;;;;7.10;99.90;;;;;;5155479;27;19948;-71
2022/04/20 06:34:44;;;;;;;;;;;8.00;99.90;;;;;;5119434;27;19923;-70
2022/04/20 06:44:02;;;;;;;;;;;7.60;99.90;;;;;;5088210;28;19947;-70
2022/04/20 06:46:28;;;;;;;;;;;7.80;99.90;;;;;;5091287;28;19959;-71
2022/04/20 06:48:53;;;;;;;;;;;7.80;99.90;;;;;;5091391;28;19924;-69
2022/04/20 06:51:19;;;;;;;;;;;7.90;99.90;;;;;;5091225;28;20399;-72
2022/04/20 06:59:24;;;;;;;;;;;8.20;99.90;;;;;;5091262;28;20019;-73
2022/04/20 07:01:51;;;;;;;;;;;8.30;99.90;;;;;;5091213;28;19972;-70
2022/04/20 07:04:17;;;;;;;;;;;8.90;99.90;;;;;;5091325;28;19925;-71
2022/04/20 07:06:42;;;;;;;;;;;8.40;99.90;;;;;;5091090;28;20019;-71
2022/04/20 07:09:08;;;;;;;;;;;8.50;99.90;;;;;;5090965;28;20306;-73
2022/04/20 07:11:46;;;;;;;;;;;9.20;99.90;;;;;;5139820;27;20370;-70
2022/04/20 07:14:11;;;;;;;;;;;8.70;99.90;;;;;;5155092;27;20059;-70
2022/04/20 07:16:37;;;;;;;;;;;8.80;99.90;;;;;;5155012;27;20017;-71
2022/04/20 07:19:02;;;;;;;;;;;9.50;99.90;;;;;;5157130;27;20380;-73
2022/04/20 07:21:29;;;;;;;;;;;9.00;99.90;;;;;;5158052;27;19930;-71
2022/04/20 07:23:54;;;;;;;;;;;9.30;99.90;;;;;;5140553;27;19923;-70
2022/04/20 07:26:20;;;;;;;;;;;9.10;99.90;;;;;;5159101;27;20388;-74
2022/04/20 07:28:46;;;;;;;;;;;9.20;99.90;;;;;;5140711;27;19923;-73
2022/04/20 07:31:11;;;;;;;;;;;9.30;99.90;;;;;;5122556;27;20293;-71
2022/04/20 07:33:37;;;;;;;;;;;10.10;99.90;;;;;;5157802;27;19976;-70
2022/04/20 07:36:06;;;;;;;;;;;9.50;99.90;;;;;;5158524;27;19927;-72
2022/04/20 07:38:34;;;;;;;;;;;9.60;99.90;;;;;;5158199;27;19923;-72
2022/04/20 07:41:00;;;;;;;;;;;9.60;99.90;;;;;;5158714;27;20258;-70
2022/04/20 07:43:25;;;;;;;;;;;9.70;99.90;;;;;;5157963;27;19967;-72
2022/04/20 07:45:51;;;;;;;;;;;10.00;99.90;;;;;;5158260;27;19927;-70
2022/04/20 07:48:16;;;;;;;;;;;9.80;99.90;;;;;;5158385;27;19923;-70
2022/04/20 07:50:42;;;;;;;;;;;9.90;99.90;;;;;;5139904;27;20401;-71
2022/04/20 07:53:08;;;;;;;;;;;10.00;99.90;;;;;;5158079;27;19926;-70
2022/04/20 07:55:34;;;;;;;;;;;10.10;99.90;;;;;;5158204;27;19930;-70
2022/04/20 07:58:01;;;;;;;;;;;10.10;99.90;;;;;;5139695;27;19923;-71
2022/04/20 08:00:27;;;;;;;;;;;10.20;99.90;;;;;;5158097;27;19923;-71
2022/04/20 08:03:11;;;;;;;;;;;10.30;99.90;;;;;;5139730;27;20290;-72
2022/04/20 08:05:37;;;;;;;;;;;10.40;99.90;;;;;;5157978;27;19930;-72
2022/04/20 08:08:03;;;;;;;;;;;10.50;99.90;;;;;;5139700;27;19923;-71
2022/04/20 08:10:29;;;;;;;;;;;10.20;99.90;;;;;;5122164;27;19930;-71
2022/04/20 08:12:55;;;;;;;;;;;10.70;99.90;;;;;;5121537;27;19938;-73
2022/04/20 08:15:20;;;;;;;;;;;11.60;99.30;;;;;;5157903;27;19923;-71
2022/04/20 08:17:46;;;;;;;;;;;10.90;92.00;;;;;;5139344;27;19971;-72
2022/04/20 08:20:11;;;;;;;;;;;10.90;75.80;;;;;;5157723;27;19989;-72
2022/04/20 08:22:43;;;;;;;;;;;11.20;86.20;;;;;;5157967;27;19923;-72
2022/04/20 08:25:10;;;;;;;;;;;11.00;80.00;;;;;;5139584;27;19975;-71
2022/04/20 08:27:35;;;;;;;;;;;11.10;75.80;;;;;;5139110;27;19924;-71
2022/04/20 08:30:01;;;;;;;;;;;11.20;77.80;;;;;;5157445;27;20331;-71
2022/04/20 08:32:26;;;;;;;;;;;11.30;71.70;;;;;;5157511;27;20389;-72
2022/04/20 08:34:52;;;;;;;;;;;11.30;70.50;;;;;;5157232;27;19968;-72
2022/04/20 08:37:17;;;;;;;;;;;11.30;67.60;;;;;;5157013;27;19930;-71
2022/04/20 08:39:43;;;;;;;;;;;11.40;69.40;;;;;;5157585;27;19924;-72
2022/04/20 08:42:12;;;;;;;;;;;11.50;67.70;;;;;;5157416;27;20397;-71
2022/04/20 08:44:41;;;;;;;;;;;11.60;65.90;;;;;;5156168;27;19930;-71
2022/04/20 08:47:07;;;;;;;;;;;11.70;61.50;;;;;;5157027;27;20290;-72
2022/04/20 08:49:33;;;;;;;;;;;11.30;60.80;;;;;;5157045;27;19930;-72
2022/04/20 08:54:44;;;;;;;;;;;11.80;59.90;;;;;;5157273;27;19945;-72
2022/04/20 08:57:15;;;;;;;;;;;11.90;60.20;;;;;;5156500;27;19930;-73
2022/04/20 08:59:45;;;;;;;;;;;12.00;61.10;;;;;;5157231;27;20389;-72
2022/04/20 09:02:11;;;;;;;;;;;12.00;58.50;;;;;;5156978;27;19923;-74
2022/04/20 09:04:37;;;;;;;;;;;12.30;59.00;;;;;;5121015;27;19972;-71
2022/04/20 09:07:04;;;;;;;;;;;12.10;60.50;;;;;;5157081;27;20336;-71
2022/04/20 09:09:30;;;;;;;;;;;12.20;59.30;;;;;;5157069;27;19973;-71
2022/04/20 09:11:59;;;;;;;;;;;12.30;58.50;;;;;;5156844;27;20014;-71
2022/04/20 09:14:25;;;;;;;;;;;12.30;58.90;;;;;;5138458;27;20267;-72
2022/04/20 09:16:57;;;;;;;;;;;12.40;59.00;;;;;;5155645;27;19935;-70
2022/04/20 09:19:26;;;;;;;;;;;12.50;58.70;;;;;;5156634;27;19946;-72
2022/04/20 09:21:52;;;;;;;;;;;12.60;58.20;;;;;;5156625;27;19923;-71
2022/04/20 09:24:18;;;;;;;;;;;12.70;57.70;;;;;;5156216;27;19930;-74
2022/04/20 09:26:56;;;;;;;;;;;13.00;56.70;;;;;;5159959;27;20013;-73
2022/04/20 09:29:22;;;;;;;;;;;12.80;57.10;;;;;;5170248;27;19969;-73
2022/04/20 09:31:49;;;;;;;;;;;12.90;58.70;;;;;;5174984;27;19922;-70
2022/04/20 09:34:30;;;;;;;;;;;13.00;56.10;;;;;;5164366;27;19923;-72
2022/04/20 09:36:57;;;;;;;;;;;13.20;56.40;;;;;;5157007;27;19923;-71
2022/04/20 09:39:25;;;;;;;;;;;12.10;55.00;;;;;;5158483;27;19923;-70
2022/04/20 09:41:59;;;;;;;;;;;13.40;56.00;;;;;;5158120;27;20277;-72
2022/04/20 09:44:25;;;;;;;;;;;13.50;56.10;;;;;;5176885;27;19923;-70
2022/04/20 09:49:37;;;;;;;;;;;13.70;55.80;;;;;;5158629;27;19929;-70
2022/04/20 09:52:10;;;;;;;;;;;13.70;53.40;;;;;;5176996;27;19923;-69
2022/04/20 09:54:36;;;;;;;;;;;13.70;53.90;;;;;;5176862;27;19932;-72
2022/04/20 09:57:12;;;;;;;;;;;13.80;53.70;;;;;;5176701;27;19978;-70
2022/04/20 09:59:54;;;;;;;;;;;13.90;52.00;;;;;;5176845;27;19974;-70
2022/04/20 10:02:19;;;;;;;;;;;13.90;52.40;;;;;;5176855;27;20009;-69
2022/04/20 10:04:47;;;;;;;;;;;14.10;55.20;;;;;;5157746;27;19937;-70
2022/04/20 10:07:13;;;;;;;;;;;14.20;54.00;;;;;;5158138;27;20029;-71
2022/04/20 10:09:39;;;;;;;;;;;14.30;51.90;;;;;;5158229;27;20010;-71
2022/04/20 10:12:05;;;;;;;;;;;14.40;51.40;;;;;;5176644;27;19923;-71
2022/04/20 10:17:20;;;;;;;;;;;14.30;47.80;;;;;;5176522;27;19929;-72
2022/04/20 10:19:47;;;;;;;;;;;14.40;49.40;;;;;;5176558;27;19923;-72
2022/04/20 10:22:14;;;;;;;;;;;14.40;47.50;;;;;;5176627;27;19922;-70
2022/04/20 10:24:42;;;;;;;;;;;14.50;47.10;;;;;;5176563;27;19967;-69
2022/04/20 10:27:39;;;;;;;;;;;14.50;47.30;;;;;;5176424;27;19927;-71
2022/04/20 10:30:10;;;;;;;;;;;14.60;46.80;;;;;;5159440;27;19923;-71
2022/04/20 10:32:55;;;;;;;;;;;14.70;47.90;;;;;;5157534;27;19930;-70
2022/04/20 10:35:21;;;;;;;;;;;14.80;48.70;;;;;;5176308;27;20014;-70
2022/04/20 10:38:05;;;;;;;;;;;14.80;46.70;;;;;;5176232;27;20404;-71
2022/04/20 10:40:31;;;;;;;;;;;14.90;46.50;;;;;;5176200;27;19974;-70
2022/04/20 10:43:15;;;;;;;;;;;14.90;46.70;;;;;;5157672;27;19929;-73
2022/04/20 10:46:00;;;;;;;;;;;14.90;46.30;;;;;;5176411;27;19930;-70
2022/04/20 10:48:26;;;;;;;;;;;15.00;46.30;;;;;;5157788;27;20401;-71
2022/04/20 10:51:11;;;;;;;;;;;15.00;46.10;;;;;;5176050;27;19933;-69
2022/04/20 10:53:36;;;;;;;;;;;15.10;46.70;;;;;;5159242;27;19922;-71
2022/04/20 10:56:02;;;;;;;;;;;15.20;47.20;;;;;;5180357;27;20400;-69
2022/04/20 10:58:28;;;;;;;;;;;15.20;46.30;;;;;;5180233;27;19923;-72
2022/04/20 11:01:10;;;;;;;;;;;15.30;46.90;;;;;;5180346;27;19923;-70
2022/04/20 11:03:50;;;;;;;;;;;15.30;47.50;;;;;;5180162;27;19923;-72
2022/04/20 11:06:16;;;;;;;;;;;15.30;46.00;;;;;;5180235;27;19923;-71
2022/04/20 11:08:41;;;;;;;;;;;15.30;46.90;;;;;;5161459;27;19930;-71
2022/04/20 11:19:50;;;;;;;;;;;15.60;47.50;;;;;;5179973;27;19922;-71
2022/04/20 11:22:16;;;;;;;;;;;15.70;48.10;;;;;;5179847;27;19923;-71
2022/04/20 11:24:42;;;;;;;;;;;15.80;48.20;;;;;;5179738;27;19940;-70
2022/04/20 11:27:08;;;;;;;;;;;15.90;47.90;;;;;;5179773;27;19923;-72
2022/04/20 11:29:34;;;;;;;;;;;16.00;48.10;;;;;;5179576;27;20473;-72
2022/04/20 11:31:59;;;;;;;;;;;15.80;46.80;;;;;;5179931;27;19933;-72
2022/04/20 11:34:28;;;;;;;;;;;15.80;48.00;;;;;;5179284;27;19946;-72
2022/04/20 11:36:55;;;;;;;;;;;15.80;48.00;;;;;;5179594;27;19974;-71
2022/04/20 11:39:21;;;;;;;;;;;15.70;47.50;;;;;;5179583;27;19926;-73
2022/04/20 11:41:48;;;;;;;;;;;15.70;47.60;;;;;;5161248;27;19930;-73
2022/04/20 11:44:23;;;;;;;;;;;15.80;48.40;;;;;;5179317;27;19967;-73
2022/04/20 11:46:49;;;;;;;;;;;15.90;49.50;;;;;;5179242;27;20289;-73
2022/04/20 11:49:15;;;;;;;;;;;15.90;47.90;;;;;;5179211;27;20412;-71
2022/04/20 11:51:46;;;;;;;;;;;15.90;47.80;;;;;;5179301;27;19964;-72
2022/04/20 11:54:17;;;;;;;;;;;15.90;47.70;;;;;;5179273;27;19948;-72
2022/04/20 11:56:42;;;;;;;;;;;15.90;47.90;;;;;;5179080;27;20326;-70
2022/04/20 11:59:09;;;;;;;;;;;16.00;48.70;;;;;;5179015;27;19979;-72
2022/04/20 12:01:37;;;;;;;;;;;16.00;48.40;;;;;;5160895;27;20010;-71
2022/04/20 12:04:13;;;;;;;;;;;16.00;48.40;;;;;;5178310;27;19923;-69
2022/04/20 12:06:59;;;;;;;;;;;15.90;48.50;;;;;;5179088;27;19923;-71
2022/04/20 12:09:25;;;;;;;;;;;15.90;48.50;;;;;;5178773;27;20011;-71
2022/04/20 12:11:52;;;;;;;;;;;15.90;48.40;;;;;;5179193;27;19927;-72
2022/04/20 12:14:19;;;;;;;;;;;15.90;48.30;;;;;;5178878;27;19970;-72
2022/04/20 12:16:45;;;;;;;;;;;15.90;48.20;;;;;;5178969;27;19929;-72
2022/04/20 12:19:11;;;;;;;;;;;15.90;47.70;;;;;;5178964;27;19933;-72
2022/04/20 12:21:42;;;;;;;;;;;15.90;48.20;;;;;;5178788;27;19923;-71
2022/04/20 12:24:09;;;;;;;;;;;15.80;49.50;;;;;;5178359;27;19927;-72
2022/04/20 12:26:39;;;;;;;;;;;15.90;49.80;;;;;;5160349;27;19930;-73
2022/04/20 12:29:06;;;;;;;;;;;15.90;48.80;;;;;;5160267;27;19975;-72
2022/04/20 12:31:33;;;;;;;;;;;15.90;49.60;;;;;;5160152;27;19962;-71
2022/04/20 12:34:03;;;;;;;;;;;15.90;49.10;;;;;;5160133;27;19930;-72
2022/04/20 12:36:31;;;;;;;;;;;15.80;48.70;;;;;;5159922;27;19923;-70
2022/04/20 12:38:57;;;;;;;;;;;15.70;49.40;;;;;;5178124;27;19923;-71
2022/04/20 12:41:45;;;;;;;;;;;15.80;49.80;;;;;;5178449;27;19946;-71
2022/04/20 12:44:31;;;;;;;;;;;15.80;50.20;;;;;;5178213;27;19930;-71
2022/04/20 12:46:57;;;;;;;;;;;15.90;50.10;;;;;;5178189;27;20293;-72
2022/04/20 12:49:24;;;;;;;;;;;15.80;49.80;;;;;;5178039;27;19975;-74
2022/04/20 12:51:51;;;;;;;;;;;15.80;49.30;;;;;;5178188;27;19923;-72
2022/04/20 12:54:25;;;;;;;;;;;15.70;49.20;;;;;;5178279;27;19941;-73
2022/04/20 13:02:20;;;;;;;;;;;15.70;50.20;;;;;;5178128;27;19933;-70
2022/04/20 13:04:46;;;;;;;;;;;15.70;51.90;;;;;;5178011;27;19923;-72
2022/04/20 13:07:12;;;;;;;;;;;15.80;52.00;;;;;;5159175;27;19933;-72
2022/04/20 13:09:38;;;;;;;;;;;15.90;51.40;;;;;;5177838;27;20386;-70
2022/04/20 13:12:04;;;;;;;;;;;16.00;51.40;;;;;;5177745;27;19929;-72
2022/04/20 13:14:31;;;;;;;;;;;16.00;51.50;;;;;;5177491;27;19978;-71
2022/04/20 13:16:57;;;;;;;;;;;15.90;51.50;;;;;;5157789;27;19923;-71
2022/04/20 13:19:22;;;;;;;;;;;15.90;52.20;;;;;;5177775;27;19922;-73
2022/04/20 13:21:48;;;;;;;;;;;16.00;52.30;;;;;;5177870;27;19926;-71
2022/04/20 13:27:53;;;;;;;;;;;16.00;52.00;;;;;;5159225;27;20346;-72
2022/04/20 13:29:45;;;;;;;;;;;16.00;51.80;;;;;;5177430;27;19923;-73
2022/04/20 13:32:10;;;;;;;;;;;16.00;52.70;;;;;;5177468;27;19975;-71
2022/04/20 13:34:36;;;;;;;;;;;16.00;53.20;;;;;;5177274;27;20013;-70
2022/04/20 13:37:02;;;;;;;;;;;16.10;52.00;;;;;;5177211;27;19930;-70
2022/04/20 13:39:28;;;;;;;;;;;16.20;52.20;;;;;;5177120;27;19922;-72
2022/04/20 13:41:53;;;;;;;;;;;15.70;52.30;;;;;;5177159;27;19968;-70
2022/04/20 13:44:19;;;;;;;;;;;16.20;53.10;;;;;;5177303;27;19923;-72
2022/04/20 13:46:45;;;;;;;;;;;16.20;53.00;;;;;;5158325;27;19922;-71
2022/04/20 13:49:12;;;;;;;;;;;16.30;52.80;;;;;;5176163;27;20340;-73
2022/04/20 13:51:37;;;;;;;;;;;16.30;53.10;;;;;;5176581;27;19923;-70
2022/04/20 13:54:04;;;;;;;;;;;16.30;52.90;;;;;;5176985;27;19930;-72
2022/04/20 13:56:29;;;;;;;;;;;16.40;53.10;;;;;;5176744;27;19967;-71
2022/04/20 13:58:55;;;;;;;;;;;16.40;53.40;;;;;;5177116;27;19927;-71
2022/04/20 14:01:20;;;;;;;;;;;16.50;52.30;;;;;;5176906;27;19923;-73
2022/04/20 14:03:46;;;;;;;;;;;16.50;52.30;;;;;;5176857;27;19923;-72
2022/04/20 14:06:12;;;;;;;;;;;16.60;51.70;;;;;;5141137;27;19922;-72
2022/04/20 14:08:38;;;;;;;;;;;16.50;52.10;;;;;;5176678;27;19947;-71
2022/04/20 14:11:03;;;;;;;;;;;16.50;52.40;;;;;;5176456;27;19929;-71
2022/04/20 14:13:29;;;;;;;;;;;16.50;53.00;;;;;;5176410;27;20017;-72
2022/04/20 14:15:55;;;;;;;;;;;16.50;53.80;;;;;;5176733;27;19923;-70
2022/04/20 14:18:20;;;;;;;;;;;16.60;52.20;;;;;;5176595;27;19923;-71
2022/04/20 14:20:46;;;;;;;;;;;16.60;53.40;;;;;;5176490;27;19929;-73
2022/04/20 14:23:11;;;;;;;;;;;16.60;53.00;;;;;;5176498;27;19933;-70
2022/04/20 14:33:52;;;;;;;;;;;17.00;52.30;;;;;;5176181;27;19967;-72
2022/04/20 14:36:18;;;;;;;;;;;17.00;52.10;;;;;;5175996;27;19929;-70
2022/04/20 14:38:45;;;;;;;;;;;17.10;52.80;;;;;;5176405;27;20269;-72
2022/04/20 14:41:13;;;;;;;;;;;17.10;51.20;;;;;;5176269;27;19929;-71
2022/04/20 14:43:39;;;;;;;;;;;17.00;51.70;;;;;;5175871;27;19930;-72
2022/04/20 14:46:04;;;;;;;;;;;17.00;52.60;;;;;;5176231;27;19988;-71
2022/04/20 14:48:30;;;;;;;;;;;17.00;52.40;;;;;;5176161;27;19929;-72
2022/04/20 14:50:56;;;;;;;;;;;16.10;51.10;;;;;;5175934;27;20373;-71
2022/04/20 14:53:21;;;;;;;;;;;16.90;52.10;;;;;;5175993;27;20042;-73
2022/04/20 14:55:49;;;;;;;;;;;16.90;52.50;;;;;;5176275;27;20464;-72
2022/04/20 14:58:33;;;;;;;;;;;17.00;52.90;;;;;;5175789;27;20377;-71
2022/04/20 15:00:59;;;;;;;;;;;16.90;52.80;;;;;;5175927;27;19922;-71
2022/04/20 15:03:24;;;;;;;;;;;16.90;52.80;;;;;;5175977;27;19929;-72
2022/04/20 15:05:50;;;;;;;;;;;16.90;53.30;;;;;;5175898;27;19923;-71
2022/04/20 15:08:15;;;;;;;;;;;17.00;53.20;;;;;;5157605;27;19923;-71
2022/04/20 15:10:41;;;;;;;;;;;17.00;53.30;;;;;;5176173;27;20373;-73
2022/04/20 15:13:07;;;;;;;;;;;17.00;52.30;;;;;;5157324;27;20329;-72
2022/04/20 15:15:32;;;;;;;;;;;17.00;53.00;;;;;;5157466;27;20005;-71
2022/04/20 15:17:59;;;;;;;;;;;17.00;53.10;;;;;;5175876;27;20055;-72
2022/04/20 15:20:24;;;;;;;;;;;17.00;53.30;;;;;;5175845;27;19923;-72
2022/04/20 15:22:50;;;;;;;;;;;17.00;52.50;;;;;;5176073;27;19930;-72
2022/04/20 15:25:16;;;;;;;;;;;17.00;52.60;;;;;;5175702;27;19926;-73
2022/04/20 15:27:41;;;;;;;;;;;17.00;52.80;;;;;;5175892;27;20014;-72
2022/04/20 15:30:08;;;;;;;;;;;17.10;53.20;;;;;;5139607;27;19923;-71
2022/04/20 15:32:33;;;;;;;;;;;17.20;53.50;;;;;;5175837;27;20018;-71
2022/04/20 15:34:59;;;;;;;;;;;17.30;52.90;;;;;;5175823;27;20369;-71
2022/04/20 15:37:25;;;;;;;;;;;17.30;52.50;;;;;;5160643;27;19930;-73
2022/04/20 15:39:51;;;;;;;;;;;17.30;53.20;;;;;;5157485;27;19923;-71
2022/04/20 15:42:18;;;;;;;;;;;17.30;53.70;;;;;;5158627;27;20289;-72
2022/04/20 15:44:43;;;;;;;;;;;17.20;53.60;;;;;;5158610;27;20416;-73
2022/04/20 15:47:10;;;;;;;;;;;17.20;53.10;;;;;;5158686;27;19923;-71
2022/04/20 15:49:36;;;;;;;;;;;17.20;53.00;;;;;;5139878;27;20294;-72